FDX1022 MTPP-MDPP
Flight info
| Callsign | FDX1022 |
|---|---|
| Flight time | 1h 15m |
| Altitude | 11500 |
| Route | PAP HCN PTA |
| Aircraft | C208/M-VGDW/C |
Departure
| Time | 2026-04-27 23:35 |
|---|---|
| Airport | Toussaint Louverture International Airport (MTPP) |
Arrival
| Time | 2026-04-28 00:50 |
|---|---|
| Airport | Gregorio Luperon International Airport (MDPP) |
| Time | Latitude | Longitude | Altitude | Speed | Heading |
|---|---|---|---|---|---|
| 2026-04-27 23:28 | 18.57604 | -72.29817 | 127 ft | 0 kts | 176° |
| 2026-04-27 23:30 | 18.57602 | -72.29816 | 127 ft | 1 kts | 154° |
| 2026-04-27 23:30 | 18.57619 | -72.29805 | 127 ft | 6 kts | 340° |
| 2026-04-27 23:30 | 18.57655 | -72.29763 | 127 ft | 8 kts | 73° |
| 2026-04-27 23:31 | 18.57659 | -72.29717 | 127 ft | 2 kts | 87° |
| 2026-04-27 23:31 | 18.57659 | -72.29716 | 127 ft | 0 kts | 87° |
| 2026-04-27 23:32 | 18.57660 | -72.29715 | 127 ft | 1 kts | 87° |
| 2026-04-27 23:32 | 18.57660 | -72.29694 | 127 ft | 6 kts | 87° |
| 2026-04-27 23:32 | 18.57663 | -72.29622 | 127 ft | 13 kts | 87° |
| 2026-04-27 23:33 | 18.57670 | -72.29509 | 127 ft | 16 kts | 71° |
| 2026-04-27 23:33 | 18.57746 | -72.29458 | 127 ft | 12 kts | 356° |
| 2026-04-27 23:33 | 18.57832 | -72.29461 | 127 ft | 15 kts | 358° |
| 2026-04-27 23:33 | 18.57964 | -72.29470 | 127 ft | 17 kts | 352° |
| 2026-04-27 23:34 | 18.57994 | -72.29454 | 127 ft | 1 kts | 85° |
| 2026-04-27 23:34 | 18.57994 | -72.29453 | 127 ft | 0 kts | 85° |
| 2026-04-27 23:34 | 18.58002 | -72.29359 | 127 ft | 48 kts | 86° |
| 2026-04-27 23:35 | 18.58034 | -72.28799 | 187 ft | 92 kts | 83° |
| 2026-04-27 23:35 | 18.58070 | -72.28062 | 280 ft | 115 kts | 84° |
| 2026-04-27 23:35 | 18.58112 | -72.27245 | 643 ft | 105 kts | 84° |
| 2026-04-27 23:35 | 18.58145 | -72.26525 | 1080 ft | 91 kts | 83° |
| 2026-04-27 23:36 | 18.58168 | -72.25905 | 1514 ft | 78 kts | 84° |
| 2026-04-27 23:36 | 18.58185 | -72.25349 | 1861 ft | 78 kts | 84° |
| 2026-04-27 23:36 | 18.58207 | -72.24749 | 2148 ft | 85 kts | 85° |
| 2026-04-27 23:36 | 18.58433 | -72.24177 | 2394 ft | 91 kts | 35° |
| 2026-04-27 23:37 | 18.59019 | -72.24224 | 2678 ft | 92 kts | 321° |
| 2026-04-27 23:37 | 18.59204 | -72.24856 | 3008 ft | 92 kts | 275° |
| 2026-04-27 23:37 | 18.59225 | -72.25538 | 3318 ft | 95 kts | 273° |
| 2026-04-27 23:37 | 18.59209 | -72.26245 | 3621 ft | 98 kts | 265° |
| 2026-04-27 23:38 | 18.59048 | -72.26955 | 3928 ft | 100 kts | 251° |
| 2026-04-27 23:38 | 18.58784 | -72.27643 | 4235 ft | 102 kts | 245° |
| 2026-04-27 23:38 | 18.58483 | -72.28323 | 4540 ft | 103 kts | 242° |
| 2026-04-27 23:38 | 18.58174 | -72.28998 | 4840 ft | 104 kts | 242° |
| 2026-04-27 23:39 | 18.57857 | -72.29685 | 5144 ft | 104 kts | 241° |
| 2026-04-27 23:39 | 18.57654 | -72.30416 | 5423 ft | 109 kts | 274° |
| 2026-04-27 23:39 | 18.58121 | -72.30994 | 5724 ft | 109 kts | 341° |
| 2026-04-27 23:39 | 18.58828 | -72.30865 | 6040 ft | 103 kts | 27° |
| 2026-04-27 23:40 | 18.59476 | -72.30546 | 6344 ft | 103 kts | 28° |
| 2026-04-27 23:40 | 18.60134 | -72.30266 | 6656 ft | 102 kts | 23° |
| 2026-04-27 23:40 | 18.60814 | -72.30086 | 6950 ft | 102 kts | 15° |
| 2026-04-27 23:40 | 18.61516 | -72.29966 | 7245 ft | 102 kts | 12° |
| 2026-04-27 23:41 | 18.62223 | -72.29876 | 7539 ft | 102 kts | 10° |
| 2026-04-27 23:41 | 18.62927 | -72.29801 | 7832 ft | 101 kts | 9° |
| 2026-04-27 23:41 | 18.63629 | -72.29728 | 8123 ft | 101 kts | 2° |
| 2026-04-27 23:41 | 18.64329 | -72.29662 | 8399 ft | 101 kts | 2° |
| 2026-04-27 23:42 | 18.65029 | -72.29600 | 8643 ft | 103 kts | 2° |
| 2026-04-27 23:42 | 18.65742 | -72.29535 | 8895 ft | 104 kts | 2° |
| 2026-04-27 23:42 | 18.66470 | -72.29469 | 9133 ft | 106 kts | 2° |
| 2026-04-27 23:42 | 18.67221 | -72.29401 | 9357 ft | 110 kts | 3° |
| 2026-04-27 23:43 | 18.68001 | -72.29330 | 9574 ft | 115 kts | 3° |
| 2026-04-27 23:43 | 18.68809 | -72.29257 | 9789 ft | 118 kts | 4° |
| 2026-04-27 23:43 | 18.69638 | -72.29181 | 9999 ft | 121 kts | 4° |
| 2026-04-27 23:43 | 18.70484 | -72.29104 | 10207 ft | 123 kts | 4° |
| 2026-04-27 23:44 | 18.71348 | -72.29025 | 10414 ft | 125 kts | 5° |
| 2026-04-27 23:44 | 18.72219 | -72.28946 | 10618 ft | 126 kts | 5° |
| 2026-04-27 23:44 | 18.73085 | -72.28867 | 10818 ft | 127 kts | 4° |
| 2026-04-27 23:44 | 18.73970 | -72.28786 | 11020 ft | 127 kts | 4° |
| 2026-04-27 23:45 | 18.74855 | -72.28705 | 11220 ft | 127 kts | 4° |
| 2026-04-27 23:45 | 18.75739 | -72.28624 | 11419 ft | 127 kts | 4° |
| 2026-04-27 23:45 | 18.76615 | -72.28544 | 11615 ft | 126 kts | 4° |
| 2026-04-27 23:45 | 18.77477 | -72.28465 | 11808 ft | 125 kts | 4° |
| 2026-04-27 23:46 | 18.78339 | -72.28387 | 12001 ft | 124 kts | 4° |
| 2026-04-27 23:46 | 18.79194 | -72.28308 | 12194 ft | 122 kts | 3° |
| 2026-04-27 23:46 | 18.80033 | -72.28232 | 12384 ft | 120 kts | 3° |
| 2026-04-27 23:46 | 18.80863 | -72.28156 | 12575 ft | 118 kts | 3° |
| 2026-04-27 23:47 | 18.81604 | -72.28079 | 12907 ft | 101 kts | 356° |
| 2026-04-27 23:47 | 18.82301 | -72.28018 | 13059 ft | 101 kts | 355° |
| 2026-04-27 23:47 | 18.83012 | -72.27958 | 13195 ft | 102 kts | 356° |
| 2026-04-27 23:47 | 18.83715 | -72.27894 | 13292 ft | 102 kts | 355° |
| 2026-04-27 23:48 | 18.84428 | -72.27831 | 13358 ft | 104 kts | 359° |
| 2026-04-27 23:48 | 18.85255 | -72.27763 | 13238 ft | 128 kts | 2° |
| 2026-04-27 23:48 | 18.86128 | -72.27680 | 13408 ft | 126 kts | 2° |
| 2026-04-27 23:48 | 18.87001 | -72.27598 | 13538 ft | 126 kts | 2° |
| 2026-04-27 23:49 | 18.87879 | -72.27517 | 13674 ft | 126 kts | 2° |
| 2026-04-27 23:49 | 18.88738 | -72.27438 | 13816 ft | 125 kts | 2° |
| 2026-04-27 23:49 | 18.89608 | -72.27358 | 13962 ft | 123 kts | 2° |
| 2026-04-27 23:49 | 18.90447 | -72.27280 | 14105 ft | 122 kts | 1° |
| 2026-04-27 23:50 | 18.91288 | -72.27203 | 14248 ft | 120 kts | 1° |
| 2026-04-27 23:50 | 18.92114 | -72.27128 | 14369 ft | 119 kts | 1° |
| 2026-04-27 23:50 | 18.92937 | -72.27052 | 14425 ft | 119 kts | 1° |
| 2026-04-27 23:50 | 18.93763 | -72.26977 | 14481 ft | 118 kts | 1° |
| 2026-04-27 23:51 | 18.94576 | -72.26903 | 14512 ft | 120 kts | 1° |
| 2026-04-27 23:51 | 18.95400 | -72.26828 | 14571 ft | 118 kts | 1° |
| 2026-04-27 23:51 | 18.96225 | -72.26752 | 14599 ft | 119 kts | 1° |
| 2026-04-27 23:51 | 18.97046 | -72.26677 | 14651 ft | 118 kts | 1° |
| 2026-04-27 23:52 | 18.97876 | -72.26601 | 14689 ft | 119 kts | 1° |
| 2026-04-27 23:52 | 18.98715 | -72.26526 | 14751 ft | 124 kts | 2° |
| 2026-04-27 23:52 | 18.99595 | -72.26446 | 14785 ft | 132 kts | 2° |
| 2026-04-27 23:52 | 19.00532 | -72.26361 | 14808 ft | 138 kts | 2° |
| 2026-04-27 23:53 | 19.01509 | -72.26272 | 14838 ft | 143 kts | 2° |
| 2026-04-27 23:53 | 19.02494 | -72.26181 | 14944 ft | 141 kts | 2° |
| 2026-04-27 23:53 | 19.03459 | -72.26092 | 15059 ft | 138 kts | 2° |
| 2026-04-27 23:53 | 19.04407 | -72.26004 | 15175 ft | 135 kts | 2° |
| 2026-04-27 23:54 | 19.05335 | -72.25919 | 15291 ft | 132 kts | 1° |
| 2026-04-27 23:54 | 19.06246 | -72.25835 | 15407 ft | 130 kts | 1° |
| 2026-04-27 23:54 | 19.07141 | -72.25753 | 15524 ft | 128 kts | 1° |
| 2026-04-27 23:54 | 19.08024 | -72.25672 | 15642 ft | 126 kts | 1° |
| 2026-04-27 23:55 | 19.08895 | -72.25592 | 15760 ft | 125 kts | 1° |
| 2026-04-27 23:55 | 19.09751 | -72.25514 | 15851 ft | 126 kts | 1° |
| 2026-04-27 23:55 | 19.10645 | -72.25433 | 15883 ft | 132 kts | 1° |
| 2026-04-27 23:55 | 19.11583 | -72.25349 | 15904 ft | 138 kts | 1° |
| 2026-04-27 23:56 | 19.12557 | -72.25260 | 15920 ft | 143 kts | 1° |
| 2026-04-27 23:56 | 19.13550 | -72.25169 | 15995 ft | 142 kts | 1° |
| 2026-04-27 23:56 | 19.14524 | -72.25078 | 16105 ft | 139 kts | 1° |
| 2026-04-27 23:56 | 19.15480 | -72.24990 | 16185 ft | 138 kts | 1° |
| 2026-04-27 23:57 | 19.16438 | -72.24900 | 16289 ft | 135 kts | 359° |
| 2026-04-27 23:57 | 19.17367 | -72.24814 | 16369 ft | 134 kts | 358° |
| 2026-04-27 23:57 | 19.18294 | -72.24730 | 16431 ft | 134 kts | 358° |
| 2026-04-27 23:57 | 19.19210 | -72.24647 | 16500 ft | 133 kts | 358° |
| 2026-04-27 23:58 | 19.20132 | -72.24563 | 16572 ft | 133 kts | 358° |
| 2026-04-27 23:58 | 19.21057 | -72.24478 | 16643 ft | 133 kts | 358° |
| 2026-04-27 23:58 | 19.21976 | -72.24394 | 16715 ft | 132 kts | 358° |
| 2026-04-27 23:58 | 19.22893 | -72.24310 | 16787 ft | 132 kts | 358° |
| 2026-04-27 23:59 | 19.23808 | -72.24226 | 16859 ft | 132 kts | 359° |
| 2026-04-27 23:59 | 19.24718 | -72.24143 | 16931 ft | 131 kts | 359° |
| 2026-04-27 23:59 | 19.25592 | -72.24060 | 17077 ft | 124 kts | 358° |
| 2026-04-27 23:59 | 19.26446 | -72.23981 | 17157 ft | 122 kts | 358° |
| 2026-04-28 00:00 | 19.27293 | -72.23904 | 17226 ft | 122 kts | 358° |
| 2026-04-28 00:00 | 19.28140 | -72.23827 | 17295 ft | 122 kts | 358° |
| 2026-04-28 00:00 | 19.28985 | -72.23750 | 17364 ft | 122 kts | 358° |
| 2026-04-28 00:00 | 19.29821 | -72.23674 | 17434 ft | 122 kts | 359° |
| 2026-04-28 00:01 | 19.30673 | -72.23596 | 17491 ft | 124 kts | 359° |
| 2026-04-28 00:01 | 19.31551 | -72.23517 | 17509 ft | 129 kts | 360° |
| 2026-04-28 00:01 | 19.32464 | -72.23435 | 17513 ft | 135 kts | 0° |
| 2026-04-28 00:01 | 19.33416 | -72.23348 | 17512 ft | 140 kts | 1° |
| 2026-04-28 00:02 | 19.34379 | -72.23262 | 17567 ft | 138 kts | 5° |
| 2026-04-28 00:02 | 19.35363 | -72.23170 | 17526 ft | 145 kts | 5° |
| 2026-04-28 00:02 | 19.36380 | -72.23075 | 17508 ft | 148 kts | 5° |
| 2026-04-28 00:02 | 19.37398 | -72.22980 | 17503 ft | 149 kts | 5° |
| 2026-04-28 00:03 | 19.38433 | -72.22885 | 17501 ft | 149 kts | 5° |
| 2026-04-28 00:03 | 19.39470 | -72.22789 | 17501 ft | 150 kts | 5° |
| 2026-04-28 00:03 | 19.40509 | -72.22693 | 17500 ft | 150 kts | 5° |
| 2026-04-28 00:03 | 19.41551 | -72.22598 | 17500 ft | 150 kts | 5° |
| 2026-04-28 00:04 | 19.42596 | -72.22501 | 17500 ft | 150 kts | 5° |
| 2026-04-28 00:04 | 19.44678 | -72.22310 | 17500 ft | 150 kts | 5° |
| 2026-04-28 00:04 | 19.45707 | -72.22215 | 17500 ft | 150 kts | 5° |
| 2026-04-28 00:05 | 19.46749 | -72.22119 | 17500 ft | 150 kts | 5° |
| 2026-04-28 00:05 | 19.47791 | -72.22023 | 17500 ft | 150 kts | 5° |
| 2026-04-28 00:05 | 19.48834 | -72.21927 | 17500 ft | 150 kts | 5° |
| 2026-04-28 00:05 | 19.49538 | -72.21863 | 17500 ft | 150 kts | 5° |
| 2026-04-28 00:06 | 19.50919 | -72.21735 | 17500 ft | 150 kts | 5° |
| 2026-04-28 00:06 | 19.51961 | -72.21640 | 17500 ft | 150 kts | 5° |
| 2026-04-28 00:06 | 19.53009 | -72.21543 | 17500 ft | 150 kts | 5° |
| 2026-04-28 00:06 | 19.54049 | -72.21447 | 17500 ft | 150 kts | 5° |
| 2026-04-28 00:07 | 19.55094 | -72.21351 | 17500 ft | 150 kts | 5° |
| 2026-04-28 00:07 | 19.56136 | -72.21255 | 17500 ft | 150 kts | 5° |
| 2026-04-28 00:07 | 19.57178 | -72.21159 | 17500 ft | 150 kts | 5° |
| 2026-04-28 00:07 | 19.58207 | -72.21064 | 17500 ft | 150 kts | 5° |
| 2026-04-28 00:08 | 19.59252 | -72.20968 | 17500 ft | 150 kts | 5° |
| 2026-04-28 00:08 | 19.60294 | -72.20872 | 17500 ft | 150 kts | 5° |
| 2026-04-28 00:08 | 19.61339 | -72.20775 | 17500 ft | 150 kts | 5° |
| 2026-04-28 00:08 | 19.62383 | -72.20679 | 17500 ft | 150 kts | 5° |
| 2026-04-28 00:09 | 19.63074 | -72.20615 | 17500 ft | 150 kts | 5° |
| 2026-04-28 00:09 | 19.64117 | -72.20519 | 17500 ft | 150 kts | 5° |
| 2026-04-28 00:09 | 19.65160 | -72.20423 | 17500 ft | 150 kts | 5° |
| 2026-04-28 00:09 | 19.66204 | -72.20326 | 17500 ft | 150 kts | 5° |
| 2026-04-28 00:10 | 19.67588 | -72.20197 | 17474 ft | 153 kts | 0° |
| 2026-04-28 00:10 | 19.68323 | -72.20128 | 17419 ft | 158 kts | 0° |
| 2026-04-28 00:10 | 19.69415 | -72.20027 | 17446 ft | 156 kts | 360° |
| 2026-04-28 00:10 | 19.70473 | -72.19930 | 17472 ft | 155 kts | 360° |
| 2026-04-28 00:11 | 19.71551 | -72.19831 | 17481 ft | 155 kts | 360° |
| 2026-04-28 00:11 | 19.72580 | -72.19475 | 17472 ft | 161 kts | 36° |
| 2026-04-28 00:11 | 19.73106 | -72.18463 | 17477 ft | 158 kts | 85° |
| 2026-04-28 00:11 | 19.73103 | -72.17308 | 17477 ft | 157 kts | 99° |
| 2026-04-28 00:12 | 19.73023 | -72.16145 | 17463 ft | 159 kts | 99° |
| 2026-04-28 00:12 | 19.72969 | -72.14966 | 17455 ft | 160 kts | 97° |
| 2026-04-28 00:12 | 19.72946 | -72.13779 | 17450 ft | 161 kts | 96° |
| 2026-04-28 00:12 | 19.72943 | -72.12590 | 17446 ft | 161 kts | 95° |
| 2026-04-28 00:13 | 19.72952 | -72.11396 | 17444 ft | 162 kts | 94° |
| 2026-04-28 00:13 | 19.72969 | -72.10203 | 17442 ft | 162 kts | 94° |
| 2026-04-28 00:13 | 19.72991 | -72.09025 | 17441 ft | 162 kts | 94° |
| 2026-04-28 00:13 | 19.73015 | -72.07829 | 17440 ft | 162 kts | 94° |
| 2026-04-28 00:14 | 19.73040 | -72.06640 | 17439 ft | 162 kts | 93° |
| 2026-04-28 00:14 | 19.73067 | -72.05441 | 17439 ft | 162 kts | 93° |
| 2026-04-28 00:14 | 19.73093 | -72.04238 | 17371 ft | 167 kts | 93° |
| 2026-04-28 00:14 | 19.73120 | -72.02989 | 17275 ft | 171 kts | 93° |
| 2026-04-28 00:15 | 19.73149 | -72.01730 | 17203 ft | 173 kts | 93° |
| 2026-04-28 00:15 | 19.73179 | -72.00446 | 17130 ft | 174 kts | 93° |
| 2026-04-28 00:15 | 19.73210 | -71.99155 | 17057 ft | 175 kts | 93° |
| 2026-04-28 00:15 | 19.73240 | -71.97854 | 16984 ft | 176 kts | 93° |
| 2026-04-28 00:16 | 19.73270 | -71.96555 | 16910 ft | 177 kts | 93° |
| 2026-04-28 00:16 | 19.73300 | -71.95245 | 16836 ft | 177 kts | 93° |
| 2026-04-28 00:16 | 19.73331 | -71.93935 | 16761 ft | 177 kts | 93° |
| 2026-04-28 00:16 | 19.73360 | -71.92638 | 16688 ft | 179 kts | 93° |
| 2026-04-28 00:17 | 19.73390 | -71.91309 | 16615 ft | 180 kts | 93° |
| 2026-04-28 00:17 | 19.73420 | -71.89979 | 16541 ft | 180 kts | 93° |
| 2026-04-28 00:17 | 19.73450 | -71.88643 | 16467 ft | 181 kts | 93° |
| 2026-04-28 00:17 | 19.73480 | -71.87312 | 16393 ft | 181 kts | 93° |
| 2026-04-28 00:18 | 19.73511 | -71.85974 | 16318 ft | 181 kts | 93° |
| 2026-04-28 00:18 | 19.73541 | -71.84635 | 16244 ft | 181 kts | 93° |
| 2026-04-28 00:18 | 19.73570 | -71.83298 | 16169 ft | 181 kts | 93° |
| 2026-04-28 00:18 | 19.73599 | -71.81976 | 16095 ft | 182 kts | 93° |
| 2026-04-28 00:19 | 19.73629 | -71.80638 | 16021 ft | 182 kts | 93° |
| 2026-04-28 00:19 | 19.73659 | -71.79294 | 15946 ft | 182 kts | 93° |
| 2026-04-28 00:19 | 19.73688 | -71.77953 | 15871 ft | 182 kts | 93° |
| 2026-04-28 00:19 | 19.73717 | -71.76616 | 15797 ft | 182 kts | 93° |
| 2026-04-28 00:20 | 19.73747 | -71.75270 | 15722 ft | 182 kts | 94° |
| 2026-04-28 00:20 | 19.73776 | -71.73926 | 15647 ft | 182 kts | 94° |
| 2026-04-28 00:20 | 19.73805 | -71.72584 | 15572 ft | 182 kts | 94° |
| 2026-04-28 00:20 | 19.73828 | -71.71251 | 15517 ft | 179 kts | 87° |
| 2026-04-28 00:21 | 19.73852 | -71.69941 | 15446 ft | 176 kts | 87° |
| 2026-04-28 00:21 | 19.73882 | -71.68641 | 15370 ft | 175 kts | 87° |
| 2026-04-28 00:21 | 19.73913 | -71.67351 | 15294 ft | 174 kts | 88° |
| 2026-04-28 00:21 | 19.73942 | -71.66069 | 15219 ft | 174 kts | 88° |
| 2026-04-28 00:22 | 19.73970 | -71.64802 | 15145 ft | 174 kts | 89° |
| 2026-04-28 00:22 | 19.73998 | -71.63521 | 15071 ft | 173 kts | 89° |
| 2026-04-28 00:22 | 19.74025 | -71.62241 | 14996 ft | 173 kts | 89° |
| 2026-04-28 00:22 | 19.74051 | -71.60964 | 14921 ft | 173 kts | 89° |
| 2026-04-28 00:23 | 19.74078 | -71.59693 | 14846 ft | 172 kts | 89° |
| 2026-04-28 00:23 | 19.74104 | -71.58417 | 14771 ft | 172 kts | 89° |
| 2026-04-28 00:23 | 19.74131 | -71.57145 | 14696 ft | 172 kts | 89° |
| 2026-04-28 00:23 | 19.74157 | -71.55872 | 14622 ft | 173 kts | 89° |
| 2026-04-28 00:24 | 19.74183 | -71.54596 | 14547 ft | 173 kts | 89° |
| 2026-04-28 00:24 | 19.74209 | -71.53323 | 14472 ft | 173 kts | 89° |
| 2026-04-28 00:24 | 19.74235 | -71.52048 | 14397 ft | 173 kts | 89° |
| 2026-04-28 00:24 | 19.74262 | -71.50767 | 14322 ft | 173 kts | 89° |
| 2026-04-28 00:25 | 19.74288 | -71.49487 | 14247 ft | 174 kts | 89° |
| 2026-04-28 00:25 | 19.74313 | -71.48206 | 14174 ft | 174 kts | 89° |
| 2026-04-28 00:25 | 19.74339 | -71.46928 | 14100 ft | 173 kts | 89° |
| 2026-04-28 00:25 | 19.74365 | -71.45645 | 14025 ft | 173 kts | 89° |
| 2026-04-28 00:26 | 19.74390 | -71.44382 | 13951 ft | 173 kts | 89° |
| 2026-04-28 00:26 | 19.74416 | -71.43101 | 13876 ft | 173 kts | 89° |
| 2026-04-28 00:26 | 19.74441 | -71.41814 | 13801 ft | 174 kts | 89° |
| 2026-04-28 00:26 | 19.74467 | -71.40533 | 13727 ft | 174 kts | 89° |
| 2026-04-28 00:27 | 19.74492 | -71.39272 | 13651 ft | 172 kts | 89° |
| 2026-04-28 00:27 | 19.74517 | -71.38007 | 13575 ft | 171 kts | 89° |
| 2026-04-28 00:27 | 19.74541 | -71.36747 | 13499 ft | 170 kts | 89° |
| 2026-04-28 00:27 | 19.74566 | -71.35489 | 13423 ft | 170 kts | 89° |
| 2026-04-28 00:28 | 19.74590 | -71.34230 | 13348 ft | 170 kts | 89° |
| 2026-04-28 00:28 | 19.74614 | -71.32977 | 13273 ft | 170 kts | 89° |
| 2026-04-28 00:28 | 19.74638 | -71.31728 | 13197 ft | 170 kts | 91° |
| 2026-04-28 00:28 | 19.74669 | -71.30473 | 13108 ft | 172 kts | 94° |
| 2026-04-28 00:29 | 19.74692 | -71.29199 | 13036 ft | 172 kts | 94° |
| 2026-04-28 00:29 | 19.74712 | -71.27923 | 12950 ft | 173 kts | 94° |
| 2026-04-28 00:29 | 19.74735 | -71.26642 | 12839 ft | 176 kts | 94° |
| 2026-04-28 00:29 | 19.74760 | -71.25348 | 12767 ft | 175 kts | 94° |
| 2026-04-28 00:30 | 19.74783 | -71.24062 | 12707 ft | 174 kts | 94° |
| 2026-04-28 00:30 | 19.74807 | -71.22782 | 12634 ft | 174 kts | 94° |
| 2026-04-28 00:30 | 19.74832 | -71.21495 | 12559 ft | 174 kts | 94° |
| 2026-04-28 00:30 | 19.74856 | -71.20209 | 12485 ft | 174 kts | 94° |
| 2026-04-28 00:31 | 19.74880 | -71.18920 | 12411 ft | 174 kts | 94° |
| 2026-04-28 00:31 | 19.74904 | -71.17636 | 12336 ft | 174 kts | 94° |
| 2026-04-28 00:31 | 19.74928 | -71.16342 | 12261 ft | 174 kts | 94° |
| 2026-04-28 00:31 | 19.74951 | -71.15070 | 12188 ft | 174 kts | 94° |
| 2026-04-28 00:32 | 19.74975 | -71.13782 | 12113 ft | 174 kts | 94° |
| 2026-04-28 00:32 | 19.74998 | -71.12494 | 12037 ft | 175 kts | 94° |
| 2026-04-28 00:32 | 19.75022 | -71.11203 | 11963 ft | 175 kts | 94° |
| 2026-04-28 00:32 | 19.75045 | -71.09906 | 11889 ft | 175 kts | 94° |
| 2026-04-28 00:33 | 19.75069 | -71.08614 | 11814 ft | 175 kts | 94° |
| 2026-04-28 00:33 | 19.75092 | -71.07317 | 11740 ft | 176 kts | 94° |
| 2026-04-28 00:33 | 19.75115 | -71.06022 | 11665 ft | 176 kts | 94° |
| 2026-04-28 00:33 | 19.75138 | -71.04740 | 11591 ft | 176 kts | 94° |
| 2026-04-28 00:34 | 19.75161 | -71.03440 | 11516 ft | 176 kts | 94° |
| 2026-04-28 00:34 | 19.75184 | -71.02144 | 11442 ft | 176 kts | 94° |
| 2026-04-28 00:34 | 19.75207 | -71.00848 | 11367 ft | 176 kts | 94° |
| 2026-04-28 00:34 | 19.75230 | -70.99550 | 11292 ft | 176 kts | 94° |
| 2026-04-28 00:35 | 19.75252 | -70.98250 | 11217 ft | 176 kts | 94° |
| 2026-04-28 00:35 | 19.75275 | -70.96950 | 11143 ft | 176 kts | 94° |
| 2026-04-28 00:35 | 19.75297 | -70.95653 | 11068 ft | 176 kts | 94° |
| 2026-04-28 00:35 | 19.75320 | -70.94348 | 10993 ft | 176 kts | 94° |
| 2026-04-28 00:36 | 19.75342 | -70.93066 | 10919 ft | 176 kts | 94° |
| 2026-04-28 00:36 | 19.75364 | -70.91764 | 10844 ft | 176 kts | 94° |
| 2026-04-28 00:36 | 19.75386 | -70.90460 | 10769 ft | 177 kts | 94° |
| 2026-04-28 00:36 | 19.75408 | -70.89153 | 10694 ft | 177 kts | 94° |
| 2026-04-28 00:37 | 19.75430 | -70.87841 | 10619 ft | 178 kts | 93° |
| 2026-04-28 00:37 | 19.75452 | -70.86525 | 10544 ft | 178 kts | 93° |
| 2026-04-28 00:37 | 19.75474 | -70.85209 | 10470 ft | 179 kts | 93° |
| 2026-04-28 00:37 | 19.75496 | -70.83904 | 10396 ft | 179 kts | 93° |
| 2026-04-28 00:38 | 19.75518 | -70.82582 | 10321 ft | 179 kts | 93° |
| 2026-04-28 00:38 | 19.75540 | -70.81253 | 10246 ft | 180 kts | 93° |
| 2026-04-28 00:38 | 19.75562 | -70.79927 | 10172 ft | 180 kts | 93° |
| 2026-04-28 00:38 | 19.75583 | -70.78600 | 10097 ft | 180 kts | 93° |
| 2026-04-28 00:39 | 19.75598 | -70.77272 | 10034 ft | 179 kts | 88° |
| 2026-04-28 00:39 | 19.75619 | -70.75960 | 9957 ft | 178 kts | 88° |
| 2026-04-28 00:39 | 19.75643 | -70.74652 | 9882 ft | 177 kts | 88° |
| 2026-04-28 00:39 | 19.75667 | -70.73339 | 9807 ft | 177 kts | 88° |
| 2026-04-28 00:40 | 19.75689 | -70.72046 | 9733 ft | 177 kts | 89° |
| 2026-04-28 00:40 | 19.75710 | -70.70735 | 9658 ft | 177 kts | 89° |
| 2026-04-28 00:40 | 19.75731 | -70.69433 | 9584 ft | 176 kts | 89° |
| 2026-04-28 00:40 | 19.75752 | -70.68132 | 9509 ft | 176 kts | 89° |
| 2026-04-28 00:41 | 19.75772 | -70.66833 | 9434 ft | 176 kts | 89° |
| 2026-04-28 00:41 | 19.75792 | -70.65539 | 9359 ft | 176 kts | 89° |
| 2026-04-28 00:41 | 19.75812 | -70.64240 | 9284 ft | 175 kts | 89° |
| 2026-04-28 00:41 | 19.75832 | -70.62944 | 9208 ft | 175 kts | 89° |
| 2026-04-28 00:42 | 19.75851 | -70.61647 | 9133 ft | 175 kts | 89° |
| 2026-04-28 00:42 | 19.75864 | -70.60368 | 9058 ft | 175 kts | 91° |
| 2026-04-28 00:42 | 19.75986 | -70.59089 | 8965 ft | 176 kts | 69° |
| 2026-04-28 00:42 | 19.76807 | -70.58137 | 8774 ft | 180 kts | 28° |
| 2026-04-28 00:43 | 19.78039 | -70.57935 | 8595 ft | 182 kts | 356° |
| 2026-04-28 00:43 | 19.79297 | -70.58140 | 8404 ft | 185 kts | 349° |
| 2026-04-28 00:43 | 19.80576 | -70.58133 | 8191 ft | 186 kts | 16° |
| 2026-04-28 00:43 | 19.81592 | -70.57318 | 7996 ft | 186 kts | 54° |
| 2026-04-28 00:44 | 19.81914 | -70.56009 | 7812 ft | 186 kts | 91° |
| 2026-04-28 00:44 | 19.81702 | -70.54659 | 7634 ft | 186 kts | 103° |
| 2026-04-28 00:44 | 19.81374 | -70.53346 | 7437 ft | 180 kts | 105° |
| 2026-04-28 00:44 | 19.81036 | -70.52093 | 7231 ft | 174 kts | 106° |
| 2026-04-28 00:45 | 19.80706 | -70.50890 | 7013 ft | 171 kts | 106° |
| 2026-04-28 00:45 | 19.80372 | -70.49676 | 6761 ft | 170 kts | 106° |
| 2026-04-28 00:45 | 19.80039 | -70.48473 | 6511 ft | 170 kts | 106° |
| 2026-04-28 00:45 | 19.79706 | -70.47267 | 6260 ft | 169 kts | 106° |
| 2026-04-28 00:46 | 19.79364 | -70.46074 | 6007 ft | 167 kts | 109° |
| 2026-04-28 00:46 | 19.78637 | -70.45161 | 5742 ft | 164 kts | 150° |
| 2026-04-28 00:46 | 19.77542 | -70.45033 | 5492 ft | 159 kts | 194° |
| 2026-04-28 00:46 | 19.76741 | -70.45709 | 5242 ft | 148 kts | 240° |
| 2026-04-28 00:47 | 19.76655 | -70.46739 | 5004 ft | 139 kts | 281° |
| 2026-04-28 00:47 | 19.76889 | -70.47691 | 4878 ft | 117 kts | 285° |
| 2026-04-28 00:47 | 19.77073 | -70.48448 | 4702 ft | 102 kts | 283° |
| 2026-04-28 00:47 | 19.77224 | -70.49183 | 4379 ft | 104 kts | 281° |
| 2026-04-28 00:48 | 19.77353 | -70.49960 | 3958 ft | 104 kts | 279° |
| 2026-04-28 00:48 | 19.77410 | -70.50712 | 3558 ft | 106 kts | 269° |
| 2026-04-28 00:48 | 19.77314 | -70.51508 | 3072 ft | 111 kts | 258° |
| 2026-04-28 00:48 | 19.77123 | -70.52326 | 2491 ft | 120 kts | 255° |
| 2026-04-28 00:49 | 19.76876 | -70.53228 | 1767 ft | 131 kts | 253° |
| 2026-04-28 00:49 | 19.76625 | -70.54102 | 1388 ft | 115 kts | 253° |
| 2026-04-28 00:49 | 19.76393 | -70.54906 | 920 ft | 114 kts | 253° |
| 2026-04-28 00:49 | 19.76191 | -70.55612 | 665 ft | 102 kts | 253° |
| 2026-04-28 00:50 | 19.75967 | -70.56373 | 155 ft | 106 kts | 252° |
| 2026-04-28 00:50 | 19.75784 | -70.57029 | 39 ft | 78 kts | 253° |
| 2026-04-28 00:50 | 19.75649 | -70.57481 | 21 ft | 50 kts | 254° |
| 2026-04-28 00:50 | 19.75570 | -70.57730 | 21 ft | 13 kts | 251° |
| 2026-04-28 00:51 | 19.75557 | -70.57771 | 21 ft | 5 kts | 251° |
| 2026-04-28 00:51 | 19.75568 | -70.57784 | 21 ft | 1 kts | 56° |
| 2026-04-28 00:51 | 19.75570 | -70.57779 | 21 ft | 3 kts | 72° |
| 2026-04-28 00:51 | 19.75592 | -70.57693 | 21 ft | 21 kts | 71° |
| 2026-04-28 00:52 | 19.75642 | -70.57514 | 21 ft | 27 kts | 74° |
| 2026-04-28 00:52 | 19.75696 | -70.57314 | 21 ft | 29 kts | 75° |
| 2026-04-28 00:52 | 19.75665 | -70.57190 | 21 ft | 13 kts | 138° |
| 2026-04-28 00:52 | 19.75601 | -70.57117 | 21 ft | 15 kts | 133° |
| 2026-04-28 00:53 | 19.75534 | -70.57027 | 21 ft | 15 kts | 96° |
| 2026-04-28 00:53 | 19.75558 | -70.56932 | 21 ft | 13 kts | 73° |
| 2026-04-28 00:53 | 19.75584 | -70.56847 | 21 ft | 12 kts | 72° |
| 2026-04-28 00:53 | 19.75607 | -70.56764 | 21 ft | 11 kts | 73° |
| 2026-04-28 00:54 | 19.75631 | -70.56687 | 21 ft | 11 kts | 75° |
| 2026-04-28 00:54 | 19.75593 | -70.56640 | 21 ft | 9 kts | 160° |
| 2026-04-28 00:54 | 19.75536 | -70.56620 | 21 ft | 9 kts | 165° |
| 2026-04-28 00:54 | 19.75478 | -70.56600 | 21 ft | 9 kts | 165° |
| 2026-04-28 00:55 | 19.75438 | -70.56566 | 21 ft | 7 kts | 85° |
| 2026-04-28 00:55 | 19.75445 | -70.56511 | 21 ft | 8 kts | 81° |
| 2026-04-28 00:55 | 19.75459 | -70.56455 | 21 ft | 8 kts | 64° |
| 2026-04-28 00:55 | 19.75473 | -70.56430 | 21 ft | 0 kts | 77° |
| 2026-04-28 00:56 | 19.75473 | -70.56429 | 21 ft | 0 kts | 77° |